CYDP

Nain Airport

Nain, Canada
METAR CYDP 182300Z VRB02KT 2SM -DZ BR BKN004 OVC009 05/05 A2952 RMK FG1ST5SC2 LAST STAFFED OB/ NEXT 180800 SLP000
Observed Flight Rules
Jul-18 @ 23:00 UTC (9 hours ago) Instrument Flight Rules
Wind Visibility Clouds Conditions
Variable at 2 knots 2 miles
  • Broken at 400' AGL
  • Overcast at 900' AGL
  • Light Drizzle
  • Mist
Temperatures Readings
Current 5°C / 41°F
Dewpoint 5°C / 41°F
Humidity 100%
Altimeter 29.52" Hg
Pressure 1000 hPa
Elevation 7
METAR CYDP 182300Z VRB02KT 2SM -DZ BR BKN004 OVC009 05/05 A2952 RMK FG1ST5SC2 LAST STAFFED OB/ NEXT 180800 SLP000
Observed Flight Rules
Jul-18 @ 23:00 UTC
(9 hours ago)
LIFR
Wind Visibility
Variable at 2 knots 2 miles
Clouds
  • Broken at 400' AGL
  • Overcast at 900' AGL
Conditions
  • Light Drizzle
  • Mist
Temperature Dewpoint
5°C / 41°F 5°C / 41°F
Humidity Altimeter Pressure
100% 29.52" Hg 1000 hPa